Time;durP1;ratioP1;P1;durP2;ratioP2;P2;SDS_P1;SDS_P2;PMS_P1;PMS_P2;Temp;Humidity;BMP_temperature;BMP_pressure;BME280_temperature;BME280_humidity;BME280_pressure;Samples;Min_cycle;Max_cycle;Signal;HPM_P1;HPM_P2
2024/03/24 00:01:07;;;;;;;7.35;3.10;;;;;;;;;;5053467;28;20550;-77
2024/03/24 00:03:37;;;;;;;5.93;2.85;;;;;;;;;;5037022;28;20036;-78
2024/03/24 00:06:03;;;;;;;7.18;3.30;;;;;;;;;;5052078;28;20111;-77
2024/03/24 00:08:28;;;;;;;5.97;3.20;;;;;;;;;;5061519;28;20112;-78
2024/03/24 00:10:54;;;;;;;7.45;3.10;;;;;;;;;;5034993;28;20013;-77
2024/03/24 00:13:20;;;;;;;6.28;2.78;;;;;;;;;;5037024;28;20029;-77
2024/03/24 00:15:45;;;;;;;4.90;3.10;;;;;;;;;;5032924;28;20499;-78
2024/03/24 00:18:11;;;;;;;6.38;2.97;;;;;;;;;;5054101;28;20378;-77
2024/03/24 00:20:36;;;;;;;5.95;2.80;;;;;;;;;;5036215;28;20036;-78
2024/03/24 00:23:02;;;;;;;6.10;3.25;;;;;;;;;;5048546;28;20022;-77
2024/03/24 00:25:28;;;;;;;7.85;3.30;;;;;;;;;;5043042;28;20395;-77
2024/03/24 00:27:53;;;;;;;5.15;3.10;;;;;;;;;;5035639;28;20440;-77
2024/03/24 00:30:19;;;;;;;5.57;2.90;;;;;;;;;;5030672;28;20039;-77
2024/03/24 00:32:44;;;;;;;10.25;3.20;;;;;;;;;;5031560;28;20033;-77
2024/03/24 00:35:09;;;;;;;8.55;3.10;;;;;;;;;;5035410;28;20418;-77
2024/03/24 00:37:38;;;;;;;10.13;3.53;;;;;;;;;;5051997;28;20107;-77
2024/03/24 00:40:04;;;;;;;6.35;3.40;;;;;;;;;;5048955;28;20106;-77
2024/03/24 00:42:29;;;;;;;6.38;3.28;;;;;;;;;;5046188;28;21813;-78
2024/03/24 00:44:54;;;;;;;6.97;3.65;;;;;;;;;;5027557;28;20375;-77
2024/03/24 00:47:20;;;;;;;7.78;3.40;;;;;;;;;;5047744;28;20441;-77
2024/03/24 00:49:45;;;;;;;5.78;3.38;;;;;;;;;;5046948;28;20024;-77
2024/03/24 00:52:11;;;;;;;5.68;3.28;;;;;;;;;;5048856;28;20028;-77
2024/03/24 00:54:36;;;;;;;8.07;3.38;;;;;;;;;;5045661;28;20386;-77
2024/03/24 00:57:01;;;;;;;9.73;3.70;;;;;;;;;;5048511;28;20031;-77
2024/03/24 00:59:26;;;;;;;6.55;3.50;;;;;;;;;;5029354;28;20036;-77
2024/03/24 01:01:52;;;;;;;7.05;3.70;;;;;;;;;;5044386;28;20155;-78
2024/03/24 01:04:17;;;;;;;7.53;3.47;;;;;;;;;;5047208;28;20394;-78
2024/03/24 01:06:43;;;;;;;5.70;3.40;;;;;;;;;;5029921;28;20053;-77
2024/03/24 01:09:08;;;;;;;8.68;4.05;;;;;;;;;;5046675;28;20048;-77
2024/03/24 01:11:33;;;;;;;6.65;3.40;;;;;;;;;;5047406;28;20070;-77
2024/03/24 01:13:59;;;;;;;5.13;3.38;;;;;;;;;;5047030;28;20132;-77
2024/03/24 01:16:24;;;;;;;7.20;3.92;;;;;;;;;;5029002;28;20051;-77
2024/03/24 01:18:49;;;;;;;5.60;3.47;;;;;;;;;;5029652;28;20020;-77
2024/03/24 01:21:15;;;;;;;7.38;4.07;;;;;;;;;;5045978;28;20163;-78
2024/03/24 01:23:40;;;;;;;8.43;3.72;;;;;;;;;;5047863;28;20029;-77
2024/03/24 01:26:05;;;;;;;6.28;3.63;;;;;;;;;;5029512;28;20769;-77
2024/03/24 01:28:31;;;;;;;6.82;3.90;;;;;;;;;;5048087;28;20032;-77
2024/03/24 01:30:56;;;;;;;6.78;3.45;;;;;;;;;;5037235;28;20024;-78
2024/03/24 01:33:21;;;;;;;6.65;3.65;;;;;;;;;;5047570;28;20519;-77
2024/03/24 01:35:47;;;;;;;6.18;3.33;;;;;;;;;;5046870;28;20036;-77
2024/03/24 01:38:13;;;;;;;9.85;4.00;;;;;;;;;;5029649;28;20033;-77
2024/03/24 01:40:46;;;;;;;8.23;4.07;;;;;;;;;;5029577;28;20033;-77
2024/03/24 01:43:11;;;;;;;;;;;;;;;;;;5028406;28;20029;-77
2024/03/24 01:45:37;;;;;;;7.60;3.40;;;;;;;;;;5029587;28;19917;-77
2024/03/24 01:48:02;;;;;;;5.60;3.33;;;;;;;;;;5031016;28;20502;-87
2024/03/24 01:50:28;;;;;;;7.22;3.53;;;;;;;;;;5046896;28;20557;-87
2024/03/24 01:52:54;;;;;;;7.22;3.70;;;;;;;;;;5045678;28;20498;-87
2024/03/24 01:55:19;;;;;;;7.20;3.55;;;;;;;;;;5029578;28;20028;-87
2024/03/24 01:57:45;;;;;;;7.50;3.85;;;;;;;;;;5029625;28;20033;-87
2024/03/24 02:00:11;;;;;;;6.22;3.92;;;;;;;;;;5047368;28;20386;-88
2024/03/24 02:02:37;;;;;;;7.18;3.83;;;;;;;;;;5028263;28;20028;-77
2024/03/24 02:05:02;;;;;;;5.78;3.47;;;;;;;;;;5045468;28;20105;-77
2024/03/24 02:07:28;;;;;;;9.00;4.07;;;;;;;;;;5046355;28;20029;-78
2024/03/24 02:09:53;;;;;;;8.15;3.72;;;;;;;;;;5029402;28;20056;-77
2024/03/24 02:12:19;;;;;;;6.15;3.60;;;;;;;;;;5042933;28;21475;-78
2024/03/24 02:14:44;;;;;;;7.90;3.92;;;;;;;;;;5028943;28;20482;-78
2024/03/24 02:17:09;;;;;;;9.52;4.47;;;;;;;;;;5047020;28;20024;-78
2024/03/24 02:19:35;;;;;;;6.93;4.22;;;;;;;;;;5030508;28;21796;-77
2024/03/24 02:22:00;;;;;;;9.10;4.50;;;;;;;;;;5027645;28;20025;-77
2024/03/24 02:24:26;;;;;;;9.07;4.70;;;;;;;;;;5045687;28;20163;-77
2024/03/24 02:26:51;;;;;;;8.07;4.60;;;;;;;;;;5029624;28;20056;-77
2024/03/24 02:29:17;;;;;;;7.10;4.43;;;;;;;;;;5047190;28;20395;-78
2024/03/24 02:31:42;;;;;;;5.90;4.13;;;;;;;;;;5031295;28;20455;-77
2024/03/24 02:34:07;;;;;;;8.30;4.40;;;;;;;;;;5046993;28;20604;-77
2024/03/24 02:36:33;;;;;;;9.40;4.97;;;;;;;;;;5046054;28;20036;-77
2024/03/24 02:38:58;;;;;;;8.20;5.40;;;;;;;;;;5045690;28;20027;-77
2024/03/24 02:41:24;;;;;;;8.32;4.82;;;;;;;;;;5045528;28;20064;-77
2024/03/24 02:43:50;;;;;;;10.00;4.95;;;;;;;;;;5045148;28;20445;-77
2024/03/24 02:46:15;;;;;;;8.25;4.60;;;;;;;;;;5045552;28;20122;-77
2024/03/24 02:48:40;;;;;;;8.85;4.50;;;;;;;;;;5046630;28;20044;-77
2024/03/24 02:51:06;;;;;;;8.13;4.35;;;;;;;;;;5043209;28;20099;-77
2024/03/24 02:53:31;;;;;;;6.47;3.13;;;;;;;;;;5044073;28;20104;-77
2024/03/24 02:55:57;;;;;;;7.25;3.75;;;;;;;;;;5029559;28;20047;-77
2024/03/24 02:58:22;;;;;;;7.03;3.22;;;;;;;;;;5045417;28;20039;-77
2024/03/24 03:00:47;;;;;;;7.72;3.10;;;;;;;;;;5033538;28;20028;-77
2024/03/24 03:03:13;;;;;;;8.25;3.58;;;;;;;;;;5028623;28;20032;-77
2024/03/24 03:05:38;;;;;;;8.95;3.83;;;;;;;;;;5028836;28;20386;-77
2024/03/24 03:08:04;;;;;;;7.97;3.72;;;;;;;;;;5046745;28;20031;-77
2024/03/24 03:10:30;;;;;;;8.90;4.20;;;;;;;;;;5048177;28;20529;-77
2024/03/24 03:12:59;;;;;;;10.35;4.35;;;;;;;;;;5027114;28;20027;-77
2024/03/24 03:15:28;;;;;;;14.82;4.60;;;;;;;;;;5026741;28;20035;-77
2024/03/24 03:17:54;;;;;;;9.35;4.38;;;;;;;;;;5028175;28;20025;-77
2024/03/24 03:20:19;;;;;;;7.43;4.28;;;;;;;;;;5046530;28;20029;-77
2024/03/24 03:22:45;;;;;;;10.98;4.18;;;;;;;;;;5044674;28;20028;-77
2024/03/24 03:25:11;;;;;;;8.52;3.67;;;;;;;;;;5044397;28;20025;-78
2024/03/24 03:27:37;;;;;;;10.10;3.97;;;;;;;;;;5045137;28;20025;-77
2024/03/24 03:30:03;;;;;;;8.50;3.45;;;;;;;;;;5046576;28;21255;-77
2024/03/24 03:32:29;;;;;;;9.25;3.60;;;;;;;;;;5033124;28;20028;-78
2024/03/24 03:34:55;;;;;;;10.13;3.92;;;;;;;;;;5026162;28;20034;-77
2024/03/24 03:37:21;;;;;;;12.02;3.80;;;;;;;;;;5026807;28;20039;-77
2024/03/24 03:39:46;;;;;;;12.07;3.63;;;;;;;;;;5045858;28;20029;-77
2024/03/24 03:42:13;;;;;;;10.88;3.63;;;;;;;;;;5044052;28;20111;-77
2024/03/24 03:44:42;;;;;;;6.82;2.83;;;;;;;;;;5044030;28;20024;-77
2024/03/24 03:47:08;;;;;;;8.02;3.42;;;;;;;;;;5028700;28;20028;-77
2024/03/24 03:49:34;;;;;;;9.23;3.42;;;;;;;;;;5035438;28;20033;-77
2024/03/24 03:51:59;;;;;;;16.05;3.80;;;;;;;;;;5045452;28;20040;-77
2024/03/24 03:54:25;;;;;;;8.13;3.25;;;;;;;;;;5044304;28;20029;-77
2024/03/24 03:56:50;;;;;;;10.10;3.08;;;;;;;;;;5044859;28;20029;-77
2024/03/24 03:59:16;;;;;;;13.40;3.65;;;;;;;;;;5044028;28;20036;-78
2024/03/24 04:01:42;;;;;;;9.20;2.90;;;;;;;;;;5045800;28;20025;-77
2024/03/24 04:04:11;;;;;;;11.25;3.17;;;;;;;;;;5025113;28;20047;-77
2024/03/24 04:06:36;;;;;;;11.30;3.55;;;;;;;;;;5027586;28;20045;-77
2024/03/24 04:09:05;;;;;;;14.38;3.40;;;;;;;;;;5028834;28;20102;-77
2024/03/24 04:11:30;;;;;;;12.27;3.22;;;;;;;;;;5025905;28;20033;-77
2024/03/24 04:13:56;;;;;;;8.38;2.90;;;;;;;;;;5045376;28;20029;-77
2024/03/24 04:16:22;;;;;;;11.38;3.25;;;;;;;;;;5026653;28;20037;-77
2024/03/24 04:18:48;;;;;;;12.68;3.00;;;;;;;;;;5045160;28;20108;-78
2024/03/24 04:21:14;;;;;;;9.43;2.97;;;;;;;;;;5043221;28;20029;-77
2024/03/24 04:23:39;;;;;;;11.98;2.88;;;;;;;;;;5027618;28;20024;-77
2024/03/24 04:26:05;;;;;;;7.15;1.95;;;;;;;;;;5028119;28;20025;-77
2024/03/24 04:28:31;;;;;;;4.32;1.08;;;;;;;;;;5033321;28;20028;-85
2024/03/24 04:30:56;;;;;;;3.13;0.95;;;;;;;;;;5033229;28;20159;-87
2024/03/24 04:33:22;;;;;;;3.03;1.00;;;;;;;;;;5030206;28;20028;-87
2024/03/24 04:35:48;;;;;;;2.40;0.80;;;;;;;;;;5046135;28;20504;-85
2024/03/24 04:38:13;;;;;;;3.85;0.90;;;;;;;;;;5029982;28;20116;-86
2024/03/24 04:40:39;;;;;;;2.58;0.80;;;;;;;;;;5027973;28;20024;-86
2024/03/24 04:43:07;;;;;;;2.22;0.73;;;;;;;;;;5048784;28;20021;-86
2024/03/24 04:45:32;;;;;;;1.75;0.68;;;;;;;;;;5044713;28;20527;-86
2024/03/24 04:47:58;;;;;;;4.07;0.80;;;;;;;;;;5047307;28;20482;-86
2024/03/24 04:50:24;;;;;;;2.03;0.90;;;;;;;;;;5048358;28;20094;-86
2024/03/24 04:52:49;;;;;;;4.43;0.93;;;;;;;;;;5029490;28;20075;-85
2024/03/24 04:55:15;;;;;;;4.68;1.00;;;;;;;;;;5046944;28;20108;-86
2024/03/24 04:57:41;;;;;;;2.00;0.80;;;;;;;;;;5046060;28;20668;-85
2024/03/24 05:00:07;;;;;;;2.42;0.70;;;;;;;;;;5030380;28;20463;-85
2024/03/24 05:02:36;;;;;;;4.30;1.00;;;;;;;;;;5045438;28;20024;-86
2024/03/24 05:05:02;;;;;;;3.70;0.88;;;;;;;;;;5048717;28;20024;-85
2024/03/24 05:07:29;;;;;;;1.45;0.77;;;;;;;;;;5046664;28;20025;-85
2024/03/24 05:09:55;;;;;;;3.15;1.00;;;;;;;;;;5046972;28;20024;-85
2024/03/24 05:12:20;;;;;;;3.45;1.05;;;;;;;;;;5029591;28;20493;-85
2024/03/24 05:14:45;;;;;;;3.72;0.90;;;;;;;;;;5045460;28;20486;-85
2024/03/24 05:17:13;;;;;;;2.78;0.80;;;;;;;;;;5030539;28;20033;-85
2024/03/24 05:19:38;;;;;;;3.22;1.02;;;;;;;;;;5048050;28;20028;-84
2024/03/24 05:22:04;;;;;;;3.63;1.00;;;;;;;;;;5029588;28;20051;-85
2024/03/24 05:24:29;;;;;;;1.70;1.02;;;;;;;;;;5048596;28;20021;-85
2024/03/24 05:26:54;;;;;;;2.22;1.02;;;;;;;;;;5047493;28;20475;-85
2024/03/24 05:29:20;;;;;;;5.35;1.60;;;;;;;;;;5046533;28;20029;-85
2024/03/24 05:31:56;;;;;;;4.13;1.27;;;;;;;;;;5046090;28;20017;-86
2024/03/24 05:34:22;;;;;;;4.40;1.33;;;;;;;;;;5045966;28;20025;-85
2024/03/24 05:36:48;;;;;;;1.77;1.08;;;;;;;;;;5047012;28;20098;-77
2024/03/24 05:39:13;;;;;;;6.18;1.38;;;;;;;;;;5043781;28;20229;-77
2024/03/24 05:41:39;;;;;;;2.92;1.50;;;;;;;;;;5028270;28;20028;-77
2024/03/24 05:44:04;;;;;;;3.47;1.48;;;;;;;;;;5045310;28;20497;-77
2024/03/24 05:46:30;;;;;;;2.13;1.10;;;;;;;;;;5047752;28;20033;-76
2024/03/24 05:48:55;;;;;;;3.70;1.50;;;;;;;;;;5029796;28;20021;-77
2024/03/24 05:51:20;;;;;;;4.28;1.55;;;;;;;;;;5040523;28;20071;-77
2024/03/24 05:53:46;;;;;;;3.72;1.75;;;;;;;;;;5028478;28;20390;-77
2024/03/24 05:56:13;;;;;;;3.15;1.40;;;;;;;;;;5045427;28;20065;-77
2024/03/24 05:58:39;;;;;;;3.38;1.25;;;;;;;;;;5046191;28;20364;-77
2024/03/24 06:01:04;;;;;;;4.15;1.30;;;;;;;;;;5027005;28;20028;-77
2024/03/24 06:03:30;;;;;;;3.28;1.58;;;;;;;;;;5027577;28;20139;-77
2024/03/24 06:05:56;;;;;;;5.68;1.90;;;;;;;;;;5028272;28;20025;-77
2024/03/24 06:08:23;;;;;;;3.42;1.38;;;;;;;;;;5046725;28;20025;-76
2024/03/24 06:10:48;;;;;;;8.30;1.58;;;;;;;;;;5028466;28;20107;-77
2024/03/24 06:13:14;;;;;;;6.28;1.67;;;;;;;;;;5025455;28;20108;-77
2024/03/24 06:15:39;;;;;;;3.65;1.52;;;;;;;;;;5046825;28;20024;-77
2024/03/24 06:18:06;;;;;;;2.67;1.30;;;;;;;;;;5045616;28;20028;-77
2024/03/24 06:20:33;;;;;;;5.43;1.73;;;;;;;;;;5046283;28;21364;-77
2024/03/24 06:23:00;;;;;;;5.43;1.50;;;;;;;;;;5027969;28;20052;-77
2024/03/24 06:25:25;;;;;;;5.95;1.80;;;;;;;;;;5047143;28;20071;-77
2024/03/24 06:27:51;;;;;;;5.32;1.58;;;;;;;;;;5026037;28;20491;-77
2024/03/24 06:30:16;;;;;;;5.80;1.80;;;;;;;;;;5047350;28;20033;-77
2024/03/24 06:32:42;;;;;;;4.28;1.95;;;;;;;;;;5031021;28;20407;-76
2024/03/24 06:35:11;;;;;;;4.82;1.42;;;;;;;;;;5044387;28;20025;-77
2024/03/24 06:37:38;;;;;;;3.70;1.50;;;;;;;;;;5027467;28;20025;-77
2024/03/24 06:40:08;;;;;;;3.53;1.65;;;;;;;;;;5025683;28;20029;-77
2024/03/24 06:45:34;;;;;;;4.43;1.77;;;;;;;;;;5028904;28;20220;-77
2024/03/24 06:48:00;;;;;;;5.18;1.60;;;;;;;;;;5044963;28;20039;-87
2024/03/24 06:50:26;;;;;;;4.32;1.70;;;;;;;;;;5039564;28;20021;-87
2024/03/24 06:52:52;;;;;;;7.03;2.13;;;;;;;;;;5024463;28;20032;-87
2024/03/24 06:55:21;;;;;;;4.57;1.90;;;;;;;;;;5023332;28;20174;-87
2024/03/24 06:57:46;;;;;;;7.00;1.92;;;;;;;;;;5043239;28;20036;-86
2024/03/24 07:00:14;;;;;;;5.22;1.92;;;;;;;;;;5039524;28;20033;-86
2024/03/24 07:02:39;;;;;;;7.05;2.03;;;;;;;;;;5024310;28;20482;-85
2024/03/24 07:05:05;;;;;;;7.65;2.92;;;;;;;;;;5028451;28;20031;-87
2024/03/24 07:07:31;;;;;;;6.32;2.13;;;;;;;;;;5026858;28;20487;-87
2024/03/24 07:09:56;;;;;;;8.27;2.55;;;;;;;;;;5043514;28;20060;-89
2024/03/24 07:12:22;;;;;;;9.52;2.47;;;;;;;;;;5046488;28;20063;-86
2024/03/24 07:14:47;;;;;;;9.50;2.50;;;;;;;;;;5045882;28;20029;-87
2024/03/24 07:17:12;;;;;;;6.50;2.50;;;;;;;;;;5045004;28;20059;-86
2024/03/24 07:19:38;;;;;;;11.73;3.50;;;;;;;;;;5028197;28;20055;-87
2024/03/24 07:22:03;;;;;;;15.40;3.40;;;;;;;;;;5029331;28;20021;-86
2024/03/24 07:24:29;;;;;;;7.72;3.10;;;;;;;;;;5043741;28;20087;-89
2024/03/24 07:26:54;;;;;;;11.00;3.75;;;;;;;;;;5028175;28;20033;-89
2024/03/24 07:29:20;;;;;;;9.65;3.53;;;;;;;;;;5029430;28;20029;-88
2024/03/24 07:31:45;;;;;;;11.45;3.35;;;;;;;;;;5043328;28;20033;-86
2024/03/24 07:34:10;;;;;;;10.18;3.35;;;;;;;;;;5043087;28;20299;-86
2024/03/24 07:36:36;;;;;;;12.98;3.72;;;;;;;;;;5049773;28;20029;-87
2024/03/24 07:39:01;;;;;;;12.00;3.75;;;;;;;;;;5042243;28;20083;-86
2024/03/24 07:41:26;;;;;;;8.57;3.50;;;;;;;;;;5048201;28;20079;-86
2024/03/24 07:43:52;;;;;;;9.23;3.05;;;;;;;;;;5028605;28;20091;-86
2024/03/24 07:46:18;;;;;;;9.70;3.40;;;;;;;;;;5048358;28;20387;-86
2024/03/24 07:48:43;;;;;;;11.55;3.65;;;;;;;;;;5028521;28;20025;-87
2024/03/24 07:51:08;;;;;;;12.68;3.80;;;;;;;;;;5045112;28;20467;-86
2024/03/24 07:53:34;;;;;;;11.30;3.72;;;;;;;;;;5033826;28;20029;-87
2024/03/24 07:55:59;;;;;;;12.77;4.18;;;;;;;;;;5033804;28;20028;-86
2024/03/24 07:58:24;;;;;;;7.78;3.42;;;;;;;;;;5040652;28;20017;-86
2024/03/24 08:00:50;;;;;;;12.68;3.90;;;;;;;;;;5030927;28;20033;-87
2024/03/24 08:03:16;;;;;;;8.07;3.47;;;;;;;;;;5048750;28;20535;-86
2024/03/24 08:05:41;;;;;;;12.82;4.05;;;;;;;;;;5047708;28;20111;-87
2024/03/24 08:08:07;;;;;;;12.38;3.72;;;;;;;;;;5040480;28;20053;-86
2024/03/24 08:10:32;;;;;;;10.85;3.40;;;;;;;;;;5033638;28;20120;-86
2024/03/24 08:12:57;;;;;;;14.23;3.85;;;;;;;;;;5050390;28;20059;-87
2024/03/24 08:15:23;;;;;;;9.10;3.35;;;;;;;;;;5036414;28;20493;-87
2024/03/24 08:17:48;;;;;;;9.80;3.63;;;;;;;;;;5054690;28;20043;-87
2024/03/24 08:20:14;;;;;;;8.10;3.65;;;;;;;;;;5051659;28;20393;-87
2024/03/24 08:22:39;;;;;;;11.52;3.70;;;;;;;;;;5033768;28;20471;-86
2024/03/24 08:25:05;;;;;;;10.90;3.47;;;;;;;;;;5052051;28;20044;-87
2024/03/24 08:27:30;;;;;;;8.32;3.78;;;;;;;;;;5051095;28;20515;-87
2024/03/24 08:29:56;;;;;;;12.40;3.40;;;;;;;;;;5029074;28;20056;-87
2024/03/24 08:32:22;;;;;;;12.77;3.42;;;;;;;;;;5053851;28;20386;-86
2024/03/24 08:34:48;;;;;;;14.57;3.33;;;;;;;;;;5044480;28;20044;-86
2024/03/24 08:37:13;;;;;;;12.70;3.63;;;;;;;;;;5049255;28;20028;-87
2024/03/24 08:39:39;;;;;;;11.20;3.42;;;;;;;;;;5040781;28;20027;-86
2024/03/24 08:42:04;;;;;;;9.20;3.22;;;;;;;;;;5052980;28;20092;-86
2024/03/24 08:44:30;;;;;;;13.23;3.28;;;;;;;;;;5038856;28;20025;-87
2024/03/24 08:46:56;;;;;;;10.68;3.53;;;;;;;;;;5053450;28;20047;-86
2024/03/24 08:49:21;;;;;;;11.18;3.75;;;;;;;;;;5037164;28;20016;-87
2024/03/24 08:51:50;;;;;;;8.07;3.15;;;;;;;;;;5034851;28;20036;-87
2024/03/24 08:54:16;;;;;;;13.25;3.40;;;;;;;;;;5049960;28;20032;-88
2024/03/24 08:56:42;;;;;;;10.30;3.42;;;;;;;;;;5035893;28;20540;-88
2024/03/24 08:59:07;;;;;;;11.30;3.58;;;;;;;;;;5049188;28;20732;-87
2024/03/24 09:01:32;;;;;;;8.93;2.90;;;;;;;;;;5048103;28;20033;-88
2024/03/24 09:03:58;;;;;;;9.38;3.10;;;;;;;;;;5048231;28;20379;-88
2024/03/24 09:06:24;;;;;;;8.88;3.00;;;;;;;;;;5033182;28;20901;-87
2024/03/24 09:08:50;;;;;;;8.93;2.90;;;;;;;;;;5039784;28;20534;-86
2024/03/24 09:11:15;;;;;;;9.50;3.25;;;;;;;;;;5030354;28;20383;-86
2024/03/24 09:13:40;;;;;;;5.68;2.72;;;;;;;;;;5034784;28;20028;-87
2024/03/24 09:16:06;;;;;;;9.13;3.10;;;;;;;;;;5046236;28;20024;-86
2024/03/24 09:18:31;;;;;;;12.02;3.40;;;;;;;;;;5051596;28;20042;-86
2024/03/24 09:21:04;;;;;;;13.80;3.13;;;;;;;;;;5045913;28;20029;-87
2024/03/24 09:23:29;;;;;;;7.38;2.85;;;;;;;;;;5036434;28;20258;-87
2024/03/24 09:25:55;;;;;;;7.85;3.03;;;;;;;;;;5034930;28;20026;-89
2024/03/24 09:28:20;;;;;;;9.43;2.83;;;;;;;;;;5046907;28;20044;-87
2024/03/24 09:31:06;;;;;;;11.23;3.13;;;;;;;;;;5041283;28;20039;-88
2024/03/24 09:33:32;;;;;;;10.98;3.47;;;;;;;;;;5044805;28;20119;-87
2024/03/24 09:36:00;;;;;;;6.43;2.70;;;;;;;;;;5046392;28;20112;-88
2024/03/24 09:38:26;;;;;;;8.88;2.50;;;;;;;;;;5044827;28;20517;-87
2024/03/24 09:40:52;;;;;;;10.65;2.90;;;;;;;;;;5047131;28;20166;-88
2024/03/24 09:43:18;;;;;;;7.10;3.22;;;;;;;;;;5035594;28;20108;-87
2024/03/24 09:45:44;;;;;;;10.02;2.90;;;;;;;;;;5038608;28;20087;-87
2024/03/24 09:48:13;;;;;;;11.57;2.67;;;;;;;;;;5049151;28;20414;-86
2024/03/24 09:50:40;;;;;;;9.20;2.78;;;;;;;;;;5042727;28;20044;-88
2024/03/24 09:53:07;;;;;;;8.85;2.22;;;;;;;;;;5028428;28;20032;-87
2024/03/24 09:55:34;;;;;;;10.77;2.45;;;;;;;;;;5045390;28;20044;-90
2024/03/24 09:58:00;;;;;;;5.07;1.50;;;;;;;;;;5030810;28;20503;-86
2024/03/24 10:00:28;;;;;;;2.75;1.05;;;;;;;;;;5041637;28;20036;-86
2024/03/24 10:02:54;;;;;;;2.53;0.90;;;;;;;;;;4991060;28;1147452;-88
2024/03/24 10:05:21;;;;;;;4.32;1.15;;;;;;;;;;5032235;28;20071;-87
2024/03/24 10:07:47;;;;;;;3.92;0.80;;;;;;;;;;5034405;28;20024;-88
2024/03/24 10:10:14;;;;;;;3.47;0.80;;;;;;;;;;5044088;28;20027;-87
2024/03/24 10:12:56;;;;;;;3.58;0.90;;;;;;;;;;5033088;28;20029;-86
2024/03/24 10:15:25;;;;;;;1.55;0.60;;;;;;;;;;5049970;28;20017;-86
2024/03/24 10:18:06;;;;;;;1.77;0.60;;;;;;;;;;5028984;28;20052;-77
2024/03/24 10:20:32;;;;;;;1.77;0.70;;;;;;;;;;5027825;28;20049;-77
2024/03/24 10:22:59;;;;;;;3.38;0.80;;;;;;;;;;5038857;28;20075;-77
2024/03/24 10:25:26;;;;;;;4.53;1.02;;;;;;;;;;5036723;28;20146;-76
2024/03/24 10:27:52;;;;;;;5.10;1.40;;;;;;;;;;5030113;28;20035;-77
2024/03/24 10:30:18;;;;;;;5.38;1.80;;;;;;;;;;5030863;28;20056;-77
2024/03/24 10:32:43;;;;;;;5.45;1.80;;;;;;;;;;5037425;28;20028;-77
2024/03/24 10:35:09;;;;;;;5.60;1.90;;;;;;;;;;5038402;28;20025;-77
2024/03/24 10:37:35;;;;;;;7.55;2.15;;;;;;;;;;5050350;28;20124;-77
2024/03/24 10:40:03;;;;;;;6.72;2.10;;;;;;;;;;5025528;28;20074;-77
2024/03/24 10:42:32;;;;;;;8.10;2.17;;;;;;;;;;5028132;28;20075;-77
2024/03/24 10:45:01;;;;;;;6.43;2.05;;;;;;;;;;5040117;28;20526;-77
2024/03/24 10:47:26;;;;;;;8.25;2.15;;;;;;;;;;5045284;28;20048;-77
2024/03/24 10:49:54;;;;;;;6.60;2.47;;;;;;;;;;5029335;28;20109;-77
2024/03/24 10:52:21;;;;;;;8.20;2.10;;;;;;;;;;5032427;28;20021;-77
2024/03/24 10:54:48;;;;;;;8.65;2.05;;;;;;;;;;5034314;28;20032;-77
2024/03/24 10:57:16;;;;;;;7.18;1.98;;;;;;;;;;5032854;28;20020;-77
2024/03/24 10:59:41;;;;;;;5.32;1.60;;;;;;;;;;5043034;28;20049;-77
2024/03/24 11:02:13;;;;;;;5.80;1.27;;;;;;;;;;5049226;28;20072;-77
2024/03/24 11:04:41;;;;;;;6.72;1.65;;;;;;;;;;5051071;28;20108;-77
2024/03/24 11:07:07;;;;;;;7.38;1.45;;;;;;;;;;5049529;28;20056;-77
2024/03/24 11:09:33;;;;;;;5.15;1.83;;;;;;;;;;5033554;28;20086;-77
2024/03/24 11:11:59;;;;;;;4.35;1.60;;;;;;;;;;5036968;28;20470;-77
2024/03/24 11:14:25;;;;;;;10.13;1.80;;;;;;;;;;5027744;28;20100;-77
2024/03/24 11:16:53;;;;;;;7.40;1.73;;;;;;;;;;5033718;28;20132;-77
2024/03/24 11:19:26;;;;;;;5.75;1.67;;;;;;;;;;5041844;28;20033;-77
2024/03/24 11:21:52;;;;;;;9.20;1.77;;;;;;;;;;5028017;28;20072;-77
2024/03/24 11:24:28;;;;;;;10.13;1.80;;;;;;;;;;5029947;28;20056;-77
2024/03/24 11:26:57;;;;;;;6.53;1.90;;;;;;;;;;5043563;28;20083;-77
2024/03/24 11:29:44;;;;;;;7.47;2.08;;;;;;;;;;5036851;28;20535;-87
2024/03/24 11:32:13;;;;;;;11.27;2.20;;;;;;;;;;5033487;28;20029;-87
2024/03/24 11:34:49;;;;;;;8.65;2.60;;;;;;;;;;5047218;28;20033;-87
2024/03/24 11:37:16;;;;;;;10.35;2.75;;;;;;;;;;5032159;28;20478;-87
2024/03/24 11:39:42;;;;;;;12.30;3.20;;;;;;;;;;5039128;28;20368;-88
2024/03/24 11:42:09;;;;;;;8.75;2.72;;;;;;;;;;5022046;28;20025;-86
2024/03/24 11:44:35;;;;;;;12.48;3.08;;;;;;;;;;5041237;28;20071;-87
2024/03/24 11:47:03;;;;;;;12.32;3.65;;;;;;;;;;5042342;28;20060;-87
2024/03/24 11:49:52;;;;;;;11.50;3.35;;;;;;;;;;5025447;28;20524;-88
2024/03/24 11:52:17;;;;;;;9.98;3.10;;;;;;;;;;5043799;28;20017;-88
2024/03/24 11:54:44;;;;;;;13.02;3.40;;;;;;;;;;5047979;28;20447;-87
2024/03/24 11:57:10;;;;;;;9.95;3.03;;;;;;;;;;5046337;28;20048;-86
2024/03/24 11:59:36;;;;;;;14.05;3.78;;;;;;;;;;5045955;28;20056;-87
2024/03/24 12:02:02;;;;;;;10.77;2.80;;;;;;;;;;5033446;28;20052;-88
2024/03/24 12:04:27;;;;;;;13.90;4.18;;;;;;;;;;5034660;28;20032;-87
2024/03/24 12:06:52;;;;;;;14.45;3.92;;;;;;;;;;5046210;28;20487;-87
2024/03/24 12:09:18;;;;;;;16.85;3.80;;;;;;;;;;5039044;28;20052;-88
2024/03/24 12:11:44;;;;;;;12.07;3.10;;;;;;;;;;5027881;28;20032;-86
2024/03/24 12:14:09;;;;;;;13.00;3.58;;;;;;;;;;5036487;28;20028;-87
2024/03/24 12:16:34;;;;;;;11.68;3.33;;;;;;;;;;5030962;28;20142;-88
2024/03/24 12:19:00;;;;;;;11.27;3.80;;;;;;;;;;5035831;28;20490;-87
2024/03/24 12:21:28;;;;;;;12.90;3.28;;;;;;;;;;5043427;28;20080;-87
2024/03/24 12:23:54;;;;;;;11.05;3.60;;;;;;;;;;5033264;28;20025;-87
2024/03/24 12:26:20;;;;;;;9.90;2.88;;;;;;;;;;5028101;28;20739;-88
2024/03/24 12:28:53;;;;;;;8.05;2.20;;;;;;;;;;5033411;28;20089;-88
2024/03/24 12:31:18;;;;;;;6.60;1.95;;;;;;;;;;5033224;28;20043;-87
2024/03/24 12:33:43;;;;;;;8.00;2.40;;;;;;;;;;5047334;28;20029;-88
2024/03/24 12:36:09;;;;;;;6.97;2.20;;;;;;;;;;5042851;28;20036;-87
2024/03/24 12:38:34;;;;;;;11.30;2.35;;;;;;;;;;5041910;28;20036;-87
2024/03/24 12:41:00;;;;;;;7.43;2.25;;;;;;;;;;5029611;28;20040;-87
2024/03/24 12:43:26;;;;;;;9.85;2.15;;;;;;;;;;5032805;28;20079;-87
2024/03/24 12:45:56;;;;;;;9.80;2.20;;;;;;;;;;5049326;28;21264;-87
2024/03/24 12:48:26;;;;;;;10.55;3.00;;;;;;;;;;5045803;28;20021;-87
2024/03/24 12:50:52;;;;;;;6.22;1.75;;;;;;;;;;5034050;28;20086;-87
2024/03/24 12:53:43;;;;;;;12.45;2.03;;;;;;;;;;5030918;28;20029;-87
2024/03/24 12:56:11;;;;;;;10.35;2.22;;;;;;;;;;5043988;28;20479;-87
2024/03/24 12:58:42;;;;;;;7.18;2.28;;;;;;;;;;5035840;28;20033;-86
2024/03/24 13:01:08;;;;;;;12.23;2.40;;;;;;;;;;5042243;28;20537;-87
2024/03/24 13:03:37;;;;;;;8.50;2.15;;;;;;;;;;5050400;28;20025;-86
2024/03/24 13:06:06;;;;;;;11.15;2.53;;;;;;;;;;5044952;28;20057;-87
2024/03/24 13:08:33;;;;;;;11.50;2.47;;;;;;;;;;5039944;28;20044;-87
2024/03/24 13:10:58;;;;;;;8.50;2.47;;;;;;;;;;5022678;28;20021;-87
2024/03/24 13:13:25;;;;;;;10.40;3.00;;;;;;;;;;5048129;28;20469;-87
2024/03/24 13:15:51;;;;;;;9.57;2.47;;;;;;;;;;5040481;28;20044;-87
2024/03/24 13:18:28;;;;;;;9.27;2.25;;;;;;;;;;5046001;28;20037;-87
2024/03/24 13:20:55;;;;;;;7.38;2.10;;;;;;;;;;5045433;28;20036;-86
2024/03/24 13:23:23;;;;;;;12.73;2.95;;;;;;;;;;5046645;28;20064;-87
2024/03/24 13:25:54;;;;;;;5.85;1.75;;;;;;;;;;5049333;28;20032;-87
2024/03/24 13:28:20;;;;;;;7.50;2.03;;;;;;;;;;5042997;28;20490;-87
2024/03/24 13:30:47;;;;;;;10.73;2.20;;;;;;;;;;5029213;28;20021;-87
2024/03/24 13:33:19;;;;;;;9.45;2.15;;;;;;;;;;5033087;28;20094;-87
2024/03/24 13:35:44;;;;;;;6.22;1.85;;;;;;;;;;5030848;28;20518;-87
2024/03/24 13:38:10;;;;;;;8.50;2.20;;;;;;;;;;5032338;28;20048;-88
2024/03/24 13:40:49;;;;;;;7.15;1.75;;;;;;;;;;5045406;28;20490;-86
2024/03/24 13:43:36;;;;;;;10.07;1.70;;;;;;;;;;5044132;28;20087;-87
2024/03/24 13:46:23;;;;;;;11.98;2.05;;;;;;;;;;5046798;28;20040;-86
2024/03/24 13:48:50;;;;;;;14.80;2.35;;;;;;;;;;5044271;28;20037;-88
2024/03/24 13:51:17;;;;;;;6.63;1.80;;;;;;;;;;5038566;28;20116;-87
2024/03/24 13:53:47;;;;;;;8.43;1.80;;;;;;;;;;5036670;28;20033;-87
2024/03/24 13:56:13;;;;;;;10.85;2.20;;;;;;;;;;5029046;28;20032;-87
2024/03/24 13:58:39;;;;;;;10.55;2.42;;;;;;;;;;5028788;28;20538;-87
2024/03/24 14:01:04;;;;;;;9.00;1.90;;;;;;;;;;5048544;28;20043;-86
2024/03/24 14:03:30;;;;;;;8.32;1.88;;;;;;;;;;5027432;28;20120;-86
2024/03/24 14:05:56;;;;;;;9.30;1.75;;;;;;;;;;5024337;28;20499;-86
2024/03/24 14:08:21;;;;;;;8.65;2.22;;;;;;;;;;5030346;28;20450;-86
2024/03/24 14:10:47;;;;;;;7.45;2.25;;;;;;;;;;5044000;28;20107;-87
2024/03/24 14:13:15;;;;;;;8.40;1.83;;;;;;;;;;5043090;28;20119;-87
2024/03/24 14:15:49;;;;;;;6.80;1.67;;;;;;;;;;5046082;28;20028;-88
2024/03/24 14:18:25;;;;;;;7.65;1.67;;;;;;;;;;5046147;28;20033;-86
2024/03/24 14:21:09;;;;;;;11.55;2.47;;;;;;;;;;5031253;28;20024;-87
2024/03/24 14:24:02;;;;;;;10.27;2.00;;;;;;;;;;5041791;28;20028;-87
2024/03/24 14:26:27;;;;;;;11.23;2.63;;;;;;;;;;5026024;28;20037;-87
2024/03/24 14:28:53;;;;;;;6.40;1.50;;;;;;;;;;5046441;28;20040;-86
2024/03/24 14:31:18;;;;;;;5.65;1.67;;;;;;;;;;5030128;28;20028;-86
2024/03/24 14:33:43;;;;;;;7.90;1.63;;;;;;;;;;5024623;28;20422;-86
2024/03/24 14:36:27;;;;;;;4.95;1.90;;;;;;;;;;5029102;28;20398;-86
2024/03/24 14:39:20;;;;;;;9.25;1.92;;;;;;;;;;5042612;28;20036;-87
2024/03/24 14:42:01;;;;;;;6.82;1.40;;;;;;;;;;5037929;28;20069;-86